createdAt,value
2023-03-18T00:01:53.108Z,17.20
2023-03-18T00:06:06.595Z,14.38
2023-03-18T00:10:12.082Z,18.23
2023-03-18T00:14:15.109Z,10.70
2023-03-18T00:18:17.461Z,11.07
2023-03-18T00:22:19.664Z,12.73
2023-03-18T00:26:22.089Z,12.02
2023-03-18T00:30:25.702Z,9.63
2023-03-18T00:34:28.148Z,8.73
2023-03-18T00:38:30.603Z,9.32
2023-03-18T00:42:39.477Z,7.18
2023-03-18T00:46:42.350Z,8.73
2023-03-18T00:50:45.242Z,8.95
2023-03-18T00:54:48.322Z,10.85
2023-03-18T00:58:52.699Z,11.70
2023-03-18T01:02:56.550Z,13.05
2023-03-18T01:06:59.025Z,12.07
2023-03-18T01:11:01.748Z,9.75
2023-03-18T01:15:05.723Z,14.65
2023-03-18T01:19:08.231Z,10.95
2023-03-18T01:23:12.897Z,13.73
2023-03-18T01:27:17.063Z,11.10
2023-03-18T01:35:25.784Z,14.68
2023-03-18T01:39:28.548Z,14.93
2023-03-18T01:43:34.406Z,9.27
2023-03-18T01:47:36.816Z,10.98
2023-03-18T01:51:42.000Z,12.35
2023-03-18T01:55:47.290Z,11.73
2023-03-18T01:59:52.247Z,9.30
2023-03-18T02:03:57.737Z,7.05
2023-03-18T02:08:07.735Z,9.00
2023-03-18T02:12:15.257Z,5.88
2023-03-18T02:16:24.085Z,8.27
2023-03-18T02:20:44.497Z,9.07
2023-03-18T02:25:14.327Z,8.93
2023-03-18T02:29:18.686Z,10.57
2023-03-18T02:33:36.550Z,7.65
2023-03-18T02:37:39.384Z,12.32
2023-03-18T02:41:42.698Z,7.57
2023-03-18T02:46:33.489Z,9.25
2023-03-18T02:50:35.989Z,10.30
2023-03-18T02:54:38.481Z,7.20
2023-03-18T02:58:43.284Z,10.38
2023-03-18T03:02:47.157Z,8.88
2023-03-18T03:06:53.674Z,7.70
2023-03-18T03:11:13.565Z,8.75
2023-03-18T03:15:17.711Z,9.88
2023-03-18T03:19:24.917Z,9.18
2023-03-18T03:23:28.576Z,11.45
2023-03-18T03:27:31.249Z,13.50
2023-03-18T03:31:34.143Z,12.95
2023-03-18T03:35:37.128Z,9.00
2023-03-18T03:39:41.492Z,8.52
2023-03-18T03:43:44.869Z,7.90
2023-03-18T03:47:47.761Z,5.43
2023-03-18T03:51:51.346Z,9.75
2023-03-18T03:55:57.345Z,8.40
2023-03-18T04:00:00.971Z,7.65
2023-03-18T04:04:24.271Z,8.05
2023-03-18T04:08:27.973Z,7.20
2023-03-18T04:12:31.130Z,9.95
2023-03-18T04:16:36.451Z,9.93
2023-03-18T04:20:40.094Z,6.90
2023-03-18T04:24:53.663Z,7.38
2023-03-18T04:28:56.230Z,7.97
2023-03-18T04:33:00.478Z,8.70
2023-03-18T04:37:03.992Z,5.70
2023-03-18T04:41:09.021Z,8.02
2023-03-18T04:45:11.848Z,8.13
2023-03-18T04:49:14.474Z,6.88
2023-03-18T04:53:17.845Z,9.98
2023-03-18T04:57:20.801Z,7.53
2023-03-18T05:01:27.228Z,7.25
2023-03-18T05:05:31.422Z,8.50
2023-03-18T05:09:34.655Z,13.27
2023-03-18T05:13:37.631Z,6.68
2023-03-18T05:17:41.903Z,7.70
2023-03-18T05:21:44.258Z,7.75
2023-03-18T05:25:49.165Z,8.68
2023-03-18T05:29:52.778Z,6.57
2023-03-18T05:34:01.942Z,6.93
2023-03-18T05:38:09.072Z,8.65
2023-03-18T05:42:12.714Z,13.75
2023-03-18T05:46:15.008Z,8.27
2023-03-18T05:50:42.763Z,6.43
2023-03-18T05:54:50.197Z,6.35
2023-03-18T05:58:59.395Z,12.32
2023-03-18T06:03:09.080Z,7.35
2023-03-18T06:07:12.664Z,12.00
2023-03-18T06:11:15.486Z,8.47
2023-03-18T06:20:00.915Z,12.40
2023-03-18T06:24:03.363Z,12.52
2023-03-18T06:28:08.615Z,9.50
2023-03-18T06:32:12.178Z,10.73
2023-03-18T06:36:16.927Z,15.17
2023-03-18T06:40:25.703Z,13.35
2023-03-18T06:44:30.116Z,12.10
2023-03-18T06:48:41.038Z,22.55
2023-03-18T06:52:46.569Z,24.90
2023-03-18T06:56:53.038Z,12.48
2023-03-18T07:00:55.596Z,23.77
2023-03-18T07:05:02.071Z,15.45
2023-03-18T07:09:05.249Z,20.70
2023-03-18T07:13:09.042Z,32.30
2023-03-18T07:17:12.559Z,13.93
2023-03-18T07:21:20.438Z,14.65
2023-03-18T07:25:26.078Z,12.13
2023-03-18T07:29:28.549Z,14.07
2023-03-18T07:33:30.872Z,13.60
2023-03-18T07:37:33.591Z,19.23
2023-03-18T07:41:37.862Z,16.60
2023-03-18T07:45:40.614Z,14.30
2023-03-18T07:49:43.316Z,11.13
2023-03-18T07:53:45.462Z,9.65
2023-03-18T07:57:47.688Z,12.55
2023-03-18T08:01:50.373Z,11.30
2023-03-18T08:05:52.600Z,10.63
2023-03-18T08:09:54.888Z,14.23
2023-03-18T08:13:57.102Z,11.32
2023-03-18T08:17:59.661Z,15.27
2023-03-18T08:22:02.374Z,11.20
2023-03-18T08:26:05.247Z,12.32
2023-03-18T08:30:08.349Z,14.25
2023-03-18T08:34:10.744Z,19.33
2023-03-18T08:38:12.956Z,22.10
2023-03-18T08:42:15.186Z,24.80
2023-03-18T08:46:18.901Z,25.52
2023-03-18T08:50:21.399Z,22.27
2023-03-18T08:54:23.669Z,20.25
2023-03-18T08:58:27.732Z,21.67
2023-03-18T09:02:29.989Z,20.10
2023-03-18T09:06:32.876Z,17.20
2023-03-18T09:10:35.839Z,21.83
2023-03-18T09:14:38.879Z,22.48
2023-03-18T09:18:44.119Z,20.40
2023-03-18T09:22:47.486Z,20.05
2023-03-18T09:26:50.063Z,15.70
2023-03-18T09:30:52.533Z,17.73
2023-03-18T09:34:58.452Z,11.70
2023-03-18T09:39:01.214Z,17.20
2023-03-18T09:43:53.017Z,8.65
2023-03-18T09:48:11.114Z,10.95
2023-03-18T09:52:37.649Z,9.63
2023-03-18T09:56:40.185Z,11.57
2023-03-18T10:00:43.369Z,8.38
2023-03-18T10:04:52.831Z,9.25
2023-03-18T10:08:57.963Z,9.55
2023-03-18T10:13:17.692Z,8.23
2023-03-18T10:17:31.412Z,10.55
2023-03-18T10:21:59.119Z,10.27
2023-03-18T10:26:10.184Z,10.23
2023-03-18T10:30:39.300Z,11.45
2023-03-18T10:35:08.632Z,11.18
2023-03-18T10:39:17.753Z,9.95
2023-03-18T10:43:22.835Z,8.50
2023-03-18T10:47:34.185Z,9.25
2023-03-18T10:52:01.220Z,8.30
2023-03-18T10:56:06.481Z,8.88
2023-03-18T11:00:26.845Z,11.73
2023-03-18T11:04:35.095Z,6.15
2023-03-18T11:08:39.761Z,6.57
2023-03-18T11:12:42.614Z,10.82
2023-03-18T11:16:58.349Z,8.23
2023-03-18T11:21:03.706Z,6.35
2023-03-18T11:25:12.307Z,4.20
2023-03-18T11:29:24.169Z,7.97
2023-03-18T11:33:33.450Z,6.25
2023-03-18T11:37:38.511Z,7.30
2023-03-18T11:41:40.601Z,4.40
2023-03-18T11:45:54.517Z,6.75
2023-03-18T11:49:57.569Z,14.23
2023-03-18T11:54:12.170Z,4.13
2023-03-18T12:02:59.434Z,6.53
2023-03-18T12:07:17.628Z,2.92
2023-03-18T12:11:25.512Z,4.97
2023-03-18T12:15:47.370Z,4.78
2023-03-18T12:20:18.517Z,5.03
2023-03-18T12:24:20.730Z,2.78
2023-03-18T12:28:43.482Z,3.78
2023-03-18T12:33:22.073Z,4.55
2023-03-18T12:37:50.908Z,5.63
2023-03-18T12:42:03.237Z,3.17
2023-03-18T12:46:14.872Z,3.80
2023-03-18T12:50:42.217Z,5.90
2023-03-18T12:54:52.197Z,5.25
2023-03-18T12:59:12.871Z,7.03
2023-03-18T13:03:36.512Z,12.02
2023-03-18T13:07:47.072Z,4.25
2023-03-18T13:12:04.825Z,7.32
2023-03-18T13:16:08.110Z,3.20
2023-03-18T13:20:16.525Z,4.50
2023-03-18T13:24:43.119Z,5.47
2023-03-18T13:29:23.793Z,10.43
2023-03-18T13:33:25.845Z,7.65
2023-03-18T13:37:55.871Z,6.32
2023-03-18T13:42:26.194Z,5.47
2023-03-18T13:46:33.471Z,13.15
2023-03-18T13:50:40.712Z,6.78
2023-03-18T13:54:52.970Z,5.82
2023-03-18T13:58:56.839Z,4.43
2023-03-18T14:03:32.330Z,2.70
2023-03-18T14:07:47.913Z,7.53
2023-03-18T14:11:53.003Z,5.55
2023-03-18T14:15:58.072Z,4.38
2023-03-18T14:25:45.403Z,5.30
2023-03-18T14:29:51.312Z,5.30
2023-03-18T14:34:23.269Z,8.57
2023-03-18T14:38:50.119Z,6.10
2023-03-18T14:42:59.729Z,5.35
2023-03-18T14:47:38.707Z,6.70
2023-03-18T14:51:44.575Z,6.90
2023-03-18T14:55:48.028Z,5.90
2023-03-18T14:59:50.621Z,5.97
2023-03-18T15:03:55.364Z,5.30
2023-03-18T15:07:57.711Z,4.43
2023-03-18T15:11:59.861Z,7.20
2023-03-18T15:16:05.282Z,5.03
2023-03-18T15:20:13.022Z,6.30
2023-03-18T15:24:26.030Z,3.97
2023-03-18T15:28:29.578Z,6.82
2023-03-18T15:32:53.332Z,4.60
2023-03-18T15:37:01.039Z,4.83
2023-03-18T15:41:09.803Z,5.57
2023-03-18T15:45:19.967Z,7.57
2023-03-18T15:49:28.492Z,4.60
2023-03-18T15:53:56.771Z,4.40
2023-03-18T15:57:59.000Z,4.88
2023-03-18T16:02:01.693Z,4.03
2023-03-18T16:06:04.224Z,5.93
2023-03-18T16:10:07.303Z,3.65
2023-03-18T16:14:19.093Z,10.20
2023-03-18T16:18:21.959Z,5.82
2023-03-18T16:22:24.154Z,5.97
2023-03-18T16:26:26.850Z,7.65
2023-03-18T16:30:31.292Z,5.63
2023-03-18T16:34:33.641Z,7.32
2023-03-18T16:38:35.764Z,4.93
2023-03-18T16:42:37.906Z,6.55
2023-03-18T16:46:41.640Z,8.77
2023-03-18T16:50:47.089Z,8.98
2023-03-18T16:54:49.326Z,9.23
2023-03-18T16:58:52.372Z,4.82
2023-03-18T17:02:55.682Z,6.03
2023-03-18T17:07:04.385Z,7.53
2023-03-18T17:11:07.633Z,7.35
2023-03-18T17:15:14.731Z,5.20
2023-03-18T17:19:17.894Z,6.47
2023-03-18T17:23:21.334Z,7.28
2023-03-18T17:27:27.500Z,47.20
2023-03-18T17:31:29.758Z,25.02
2023-03-18T17:35:32.405Z,22.08
2023-03-18T17:39:34.858Z,19.35
2023-03-18T17:43:37.393Z,21.13
2023-03-18T17:47:40.517Z,24.98
2023-03-18T17:51:43.682Z,63.03
2023-03-18T17:55:45.880Z,33.63
2023-03-18T17:59:48.722Z,38.45
2023-03-18T18:03:51.234Z,25.70
2023-03-18T18:07:53.388Z,20.30
2023-03-18T18:11:56.581Z,25.35
2023-03-18T18:15:58.911Z,18.58
2023-03-18T18:20:01.114Z,21.50
2023-03-18T18:24:04.386Z,22.58
2023-03-18T18:28:17.658Z,31.67
2023-03-18T18:32:22.071Z,14.77
2023-03-18T18:36:28.478Z,18.42
2023-03-18T18:40:31.428Z,15.15
2023-03-18T18:44:34.252Z,19.50
2023-03-18T18:48:39.296Z,19.85
2023-03-18T18:52:41.788Z,25.25
2023-03-18T18:56:44.041Z,26.17
2023-03-18T19:00:49.641Z,17.60
2023-03-18T19:04:52.733Z,15.88
2023-03-18T19:08:56.792Z,17.52
2023-03-18T19:12:59.096Z,48.78
2023-03-18T19:17:03.734Z,42.28
2023-03-18T19:21:06.928Z,32.05
2023-03-18T19:25:12.591Z,19.83
2023-03-18T19:29:15.441Z,5.22
2023-03-18T19:33:17.719Z,13.30
2023-03-18T19:37:21.985Z,10.27
2023-03-18T19:41:24.369Z,15.32
2023-03-18T19:45:27.459Z,7.78
2023-03-18T19:49:39.602Z,6.30
2023-03-18T19:53:47.226Z,8.98
2023-03-18T19:57:50.592Z,17.42
2023-03-18T20:01:52.842Z,12.05
2023-03-18T20:05:55.282Z,10.43
2023-03-18T20:09:57.667Z,13.70
2023-03-18T20:14:00.126Z,5.93
2023-03-18T20:18:02.699Z,6.15
2023-03-18T20:22:04.958Z,13.85
2023-03-18T20:26:07.430Z,7.75
2023-03-18T20:30:24.434Z,14.23
2023-03-18T20:34:27.140Z,8.77
2023-03-18T20:38:39.818Z,5.47
2023-03-18T20:42:42.319Z,5.50
2023-03-18T20:46:44.666Z,21.58
2023-03-18T20:50:46.978Z,13.85
2023-03-18T20:54:49.304Z,40.53
2023-03-18T20:58:51.850Z,9.15
2023-03-18T21:02:56.753Z,24.15
2023-03-18T21:06:59.299Z,36.58
2023-03-18T21:11:02.257Z,13.32
2023-03-18T21:15:05.061Z,12.30
2023-03-18T21:19:07.321Z,12.23
2023-03-18T21:23:25.824Z,16.00
2023-03-18T21:27:28.525Z,28.08
2023-03-18T21:31:34.710Z,31.42
2023-03-18T21:35:37.432Z,14.00
2023-03-18T21:39:39.738Z,6.28
2023-03-18T21:43:41.915Z,6.35
2023-03-18T21:47:44.143Z,8.10
2023-03-18T21:51:46.714Z,6.03
2023-03-18T21:55:50.175Z,11.27
2023-03-18T21:59:53.604Z,8.35
2023-03-18T22:03:56.138Z,26.90
2023-03-18T22:07:58.445Z,7.65
2023-03-18T22:12:00.769Z,9.05
2023-03-18T22:16:03.621Z,5.88
2023-03-18T22:20:07.438Z,7.55
2023-03-18T22:24:14.471Z,8.37
2023-03-18T22:28:17.367Z,5.53
2023-03-18T22:32:33.182Z,7.63
2023-03-18T22:36:35.810Z,5.22
2023-03-18T22:40:41.612Z,7.38
2023-03-18T22:44:44.420Z,8.70
2023-03-18T22:48:46.626Z,5.82
2023-03-18T22:52:50.674Z,9.57
2023-03-18T22:56:52.848Z,9.82
2023-03-18T23:00:56.380Z,11.52
2023-03-18T23:04:58.546Z,9.18
2023-03-18T23:09:00.715Z,11.13
2023-03-18T23:13:11.514Z,11.27
2023-03-18T23:17:17.152Z,13.27
2023-03-18T23:21:22.463Z,11.52
2023-03-18T23:25:25.106Z,16.38
2023-03-18T23:29:27.565Z,13.52
2023-03-18T23:33:29.890Z,19.02
2023-03-18T23:37:32.236Z,26.95
2023-03-18T23:41:34.543Z,15.88
2023-03-18T23:45:38.640Z,16.45
2023-03-18T23:49:41.516Z,15.75
2023-03-18T23:53:43.854Z,18.90
2023-03-18T23:57:46.706Z,13.55
